Al-Shuaiba, Kuwait

4:39 PM AST on July 06, 2015 (GMT +0300)
Julai'a | | Change Station
CLOSE
Current Station
Personal Weather Station
Location: Kuwait City, AL ASIMAH
Elevation: 26 ft
Nearby Weather Stations

Elev 26 ft 28.92 °N, 48.21 °E | Updated 6 seconds ago

Partly Cloudy
Partly Cloudy
112.8 °F
Feels Like 108 °F
N
13.9
Wind Variable Wind from SW
Gusts 30.0 mph

Today
High -- | Low -- °F
--% Chance of Precip.
Yesterday
High -- | Low -- °F
Precip. -- in
4:54 AM 6:50 PM
Waning Gibbous, 75% visible
Pressure 29.47 in
Visibility 1.6 miles
Clouds Clear
Heat Index 108 °F
Dew Point 46 °F
Humidity 11%
Rainfall 0.00 in
Snow Depth Not available.
UV 3 out of 12
Pollen Not available.
Air Quality Not available.
Flu Activity Not available.
METAR OKBK 061330Z 34024KT 2500 R15R/1200N R33L/1200N R15L/1500N R33R/1500U +BLDU SKC 44/02 Q0998

More Conditions Fewer Conditions

Pressure 29.47 in
Visibility 1.6 miles
Clouds Clear
Heat Index 108 °F
Dew Point 46 °F
Humidity 11%
Rainfall 0.00 in
Snow Depth Not available.
UV 3 out of 12
Pollen Not available.
Air Quality Not available.
Flu Activity Not available.
METAR OKBK 061330Z 34024KT 2500 R15R/1200N R33L/1200N R15L/1500N R33R/1500U +BLDU SKC 44/02 Q0998

More Conditions Fewer Conditions

10-Day Weather Forecast

×

Almanac

Astronomy

Jul. 06, 2015 Rise Set
Actual Time
Civil Twilight
Nautical Twilight
Astronomical Twilight
Moon
Length of Visible Light
Length of Day
Tomorrow will be .
, % of the Moon is Illuminated

Today's Extremes

Country Highs Country Lows

Community

WunderPhotos

Upload Photos

1,835,558 photos uploaded!

WunderBlogs® & News

Nearby

Air Quality

  Air Quality AQ Index Pollutant
Not available.

Snow Depth

Station Depth Elevation

Earthquake Activity

City Distance Mag. Time & Date
Minimum magnitude displayed is 2.5.

Coastal Water Temperatures

Place Temperature

Stations

Nearby Weather Stations

Station Location Temp. Windchill Dew Point Humidity Wind Precip. Elev Updated Type